Time;durP1;ratioP1;P1;durP2;ratioP2;P2;SDS_P1;SDS_P2;PMS_P1;PMS_P2;Temp;Humidity;BMP_temperature;BMP_pressure;BME280_temperature;BME280_humidity;BME280_pressure;Samples;Min_cycle;Max_cycle;Signal;HPM_P1;HPM_P2
2023/02/16 00:02:16;;;;;;;27.83;15.32;;;;;;;;;;6152769;23;20375;-81
2023/02/16 00:04:43;;;;;;;27.67;15.80;;;;;;;;;;6152123;23;20390;-82
2023/02/16 00:07:11;;;;;;;29.98;16.33;;;;;;;;;;6127780;23;20378;-81
2023/02/16 00:09:44;;;;;;;32.72;16.70;;;;;;;;;;6152163;23;20386;-81
2023/02/16 00:15:15;;;;;;;35.20;18.42;;;;;;;;;;6128186;23;20418;-81
2023/02/16 00:17:43;;;;;;;40.88;18.63;;;;;;;;;;6164801;23;20374;-80
2023/02/16 00:20:16;;;;;;;40.40;18.92;;;;;;;;;;6152464;23;20836;-81
2023/02/16 00:22:49;;;;;;;40.50;19.77;;;;;;;;;;6152935;23;20379;-81
2023/02/16 00:25:22;;;;;;;39.22;19.42;;;;;;;;;;6164701;23;20381;-81
2023/02/16 00:27:56;;;;;;;44.92;20.90;;;;;;;;;;6153530;23;20378;-80
2023/02/16 00:30:29;;;;;;;49.28;21.23;;;;;;;;;;6153129;23;20879;-81
2023/02/16 00:33:02;;;;;;;41.40;20.48;;;;;;;;;;6128709;23;20428;-82
2023/02/16 00:35:35;;;;;;;46.28;21.95;;;;;;;;;;6128083;23;20395;-82
2023/02/16 00:38:08;;;;;;;39.40;19.93;;;;;;;;;;6154880;23;20367;-81
2023/02/16 00:40:36;;;;;;;40.20;20.33;;;;;;;;;;6153184;23;20716;-81
2023/02/16 00:43:20;;;;;;;38.53;19.58;;;;;;;;;;6153077;23;20382;-81
2023/02/16 00:45:53;;;;;;;35.47;18.88;;;;;;;;;;6164480;23;20378;-81
2023/02/16 00:48:21;;;;;;;34.10;18.08;;;;;;;;;;6153203;23;20387;-82
2023/02/16 00:50:54;;;;;;;36.03;18.35;;;;;;;;;;6152602;23;20387;-81
2023/02/16 00:53:22;;;;;;;36.38;18.65;;;;;;;;;;6154773;23;20828;-81
2023/02/16 00:55:55;;;;;;;33.03;17.87;;;;;;;;;;6151843;23;20390;-81
2023/02/16 00:58:24;;;;;;;37.53;18.93;;;;;;;;;;6128165;23;20387;-81
2023/02/16 01:00:54;;;;;;;41.95;19.13;;;;;;;;;;6152230;23;20383;-81
2023/02/16 01:03:28;;;;;;;36.70;18.00;;;;;;;;;;6151725;23;20383;-81
2023/02/16 01:11:33;;;;;;;34.90;18.58;;;;;;;;;;6127435;23;20375;-81
2023/02/16 01:14:03;;;;;;;31.35;17.30;;;;;;;;;;6151982;23;20394;-81
2023/02/16 01:16:37;;;;;;;34.00;17.80;;;;;;;;;;6152436;23;20387;-81
2023/02/16 01:19:05;;;;;;;29.77;16.20;;;;;;;;;;6152141;23;20484;-81
2023/02/16 01:21:33;;;;;;;32.63;17.60;;;;;;;;;;6152082;23;20704;-81
2023/02/16 01:24:01;;;;;;;31.33;16.88;;;;;;;;;;6128137;23;20390;-81
2023/02/16 01:26:37;;;;;;;35.63;17.50;;;;;;;;;;6164041;23;20374;-81
2023/02/16 01:29:13;;;;;;;32.05;17.58;;;;;;;;;;6152549;23;20386;-82
2023/02/16 01:31:42;;;;;;;35.47;18.27;;;;;;;;;;6127303;23;20383;-81
2023/02/16 01:34:10;;;;;;;33.22;17.35;;;;;;;;;;6151792;23;20382;-81
2023/02/16 01:36:44;;;;;;;33.65;17.55;;;;;;;;;;6152193;23;20379;-82
2023/02/16 01:39:13;;;;;;;29.13;16.17;;;;;;;;;;6151817;23;20383;-81
2023/02/16 01:41:55;;;;;;;34.35;17.52;;;;;;;;;;6164209;23;20370;-81
2023/02/16 01:44:30;;;;;;;36.87;18.20;;;;;;;;;;6152846;23;20383;-80
2023/02/16 01:47:01;;;;;;;29.45;16.55;;;;;;;;;;6127530;23;20390;-81
2023/02/16 01:49:31;;;;;;;29.43;16.73;;;;;;;;;;6164074;23;20718;-81
2023/02/16 01:52:06;;;;;;;33.87;17.37;;;;;;;;;;6155852;23;20828;-81
2023/02/16 01:54:38;;;;;;;34.72;17.02;;;;;;;;;;6153700;23;20359;-81
2023/02/16 01:57:11;;;;;;;32.05;17.40;;;;;;;;;;6152308;23;20387;-82
2023/02/16 01:59:59;;;;;;;34.30;17.00;;;;;;;;;;6151894;23;20394;-81
2023/02/16 02:02:32;;;;;;;32.60;16.95;;;;;;;;;;6163428;23;20367;-81
2023/02/16 02:08:03;;;;;;;35.67;17.92;;;;;;;;;;6163951;23;20386;-81
2023/02/16 02:10:35;;;;;;;35.20;17.73;;;;;;;;;;6151986;23;20375;-81
2023/02/16 02:13:11;;;;;;;33.08;17.60;;;;;;;;;;6151612;23;20398;-81
2023/02/16 02:15:44;;;;;;;33.58;17.80;;;;;;;;;;6151469;23;20383;-81
2023/02/16 02:18:18;;;;;;;36.50;17.00;;;;;;;;;;6127249;23;20402;-80
2023/02/16 02:23:59;;;;;;;45.45;21.45;;;;;;;;;;6126463;23;20393;-81
2023/02/16 02:26:54;;;;;;;45.83;22.48;;;;;;;;;;6152363;23;20674;-81
2023/02/16 02:29:35;;;;;;;50.90;23.73;;;;;;;;;;6151640;23;20379;-81
2023/02/16 02:32:16;;;;;;;54.13;24.08;;;;;;;;;;6151111;23;20382;-82
2023/02/16 02:34:54;;;;;;;57.13;25.98;;;;;;;;;;6151358;23;20871;-83
2023/02/16 02:37:34;;;;;;;63.45;27.65;;;;;;;;;;6152092;23;20391;-81
2023/02/16 02:40:05;;;;;;;58.08;26.30;;;;;;;;;;6151834;23;20402;-81
2023/02/16 02:42:41;;;;;;;53.95;25.45;;;;;;;;;;6151567;23;20390;-81
2023/02/16 02:45:13;;;;;;;63.92;27.85;;;;;;;;;;6151615;23;20393;-81
2023/02/16 02:47:47;;;;;;;58.58;26.80;;;;;;;;;;6163463;23;20377;-81
2023/02/16 02:50:34;;;;;;;61.42;26.60;;;;;;;;;;6127006;23;20379;-81
2023/02/16 02:53:03;;;;;;;61.15;27.42;;;;;;;;;;6126914;23;20402;-82
2023/02/16 03:01:18;;;;;;;57.30;27.77;;;;;;;;;;6153677;23;20402;-82
2023/02/16 03:03:54;;;;;;;65.70;29.70;;;;;;;;;;6151751;23;20476;-81
2023/02/16 03:06:23;;;;;;;64.23;29.00;;;;;;;;;;6126093;23;20701;-81
2023/02/16 03:08:55;;;;;;;66.15;30.67;;;;;;;;;;6153172;23;20364;-80
2023/02/16 03:14:16;;;;;;;63.73;29.50;;;;;;;;;;6141038;23;20378;-81
2023/02/16 03:16:44;;;;;;;62.63;29.70;;;;;;;;;;6162841;23;20379;-81
2023/02/16 03:30:25;;;;;;;48.07;24.80;;;;;;;;;;6126541;23;20383;-82
2023/02/16 03:32:54;;;;;;;41.78;22.45;;;;;;;;;;6153416;23;20363;-82
2023/02/16 03:35:22;;;;;;;37.95;21.33;;;;;;;;;;6127869;23;20383;-82
2023/02/16 03:37:54;;;;;;;37.60;20.45;;;;;;;;;;6165270;23;20386;-82
2023/02/16 03:40:28;;;;;;;36.90;20.00;;;;;;;;;;6128560;23;20853;-81
2023/02/16 03:43:01;;;;;;;39.22;20.30;;;;;;;;;;6153701;23;20849;-81
2023/02/16 03:45:37;;;;;;;38.28;20.75;;;;;;;;;;6153468;23;20383;-81
2023/02/16 03:48:10;;;;;;;48.05;22.95;;;;;;;;;;6153099;23;20394;-81
2023/02/16 03:50:38;;;;;;;39.75;21.30;;;;;;;;;;6153891;23;20386;-81
2023/02/16 03:53:11;;;;;;;48.75;24.60;;;;;;;;;;6165232;23;20397;-81
2023/02/16 03:55:44;;;;;;;48.13;25.35;;;;;;;;;;6129221;23;20700;-81
2023/02/16 03:58:18;;;;;;;53.15;26.00;;;;;;;;;;6152906;23;20379;-81
2023/02/16 04:00:52;;;;;;;51.57;26.27;;;;;;;;;;6165370;23;20661;-81
2023/02/16 04:03:20;;;;;;;49.88;24.73;;;;;;;;;;6152800;23;21039;-82
2023/02/16 04:05:55;;;;;;;47.38;25.38;;;;;;;;;;6153139;23;20391;-82
2023/02/16 04:08:22;;;;;;;44.92;23.05;;;;;;;;;;6155214;23;20366;-82
2023/02/16 04:10:56;;;;;;;42.33;21.52;;;;;;;;;;6128626;23;20390;-81
2023/02/16 04:13:23;;;;;;;36.83;19.48;;;;;;;;;;6153439;23;20383;-81
2023/02/16 04:15:57;;;;;;;44.28;23.13;;;;;;;;;;6164942;23;20435;-81
2023/02/16 04:18:25;;;;;;;47.58;22.63;;;;;;;;;;6128578;23;20387;-81
2023/02/16 04:20:53;;;;;;;44.80;22.75;;;;;;;;;;6153110;23;20851;-81
2023/02/16 04:23:21;;;;;;;43.35;22.23;;;;;;;;;;6153175;23;20372;-81
2023/02/16 04:25:48;;;;;;;40.53;21.58;;;;;;;;;;6128499;23;20382;-81
2023/02/16 04:28:21;;;;;;;38.58;20.58;;;;;;;;;;6153444;23;21098;-81
2023/02/16 04:30:50;;;;;;;38.35;20.58;;;;;;;;;;6153000;23;20390;-82
2023/02/16 04:33:25;;;;;;;38.03;20.00;;;;;;;;;;6152909;23;20862;-81
2023/02/16 04:35:52;;;;;;;40.13;20.08;;;;;;;;;;6155014;23;20378;-82
2023/02/16 04:38:25;;;;;;;42.17;21.23;;;;;;;;;;6153468;23;20387;-81
2023/02/16 04:40:59;;;;;;;45.60;21.90;;;;;;;;;;6153523;23;20406;-81
2023/02/16 04:43:26;;;;;;;42.08;22.05;;;;;;;;;;6128222;23;20832;-81
2023/02/16 04:45:54;;;;;;;41.13;20.92;;;;;;;;;;6154833;23;20370;-81
2023/02/16 04:48:28;;;;;;;37.33;20.17;;;;;;;;;;6164722;23;20385;-82
2023/02/16 04:50:56;;;;;;;37.97;19.77;;;;;;;;;;6154870;23;20382;-82
2023/02/16 04:53:29;;;;;;;35.47;19.10;;;;;;;;;;6152663;23;20375;-82
2023/02/16 04:56:02;;;;;;;36.35;19.80;;;;;;;;;;6164502;23;20383;-81
2023/02/16 04:58:35;;;;;;;38.53;20.17;;;;;;;;;;6152923;23;20387;-81
2023/02/16 05:01:02;;;;;;;46.83;22.53;;;;;;;;;;6152635;23;20379;-81
2023/02/16 05:03:31;;;;;;;43.83;22.20;;;;;;;;;;6153093;23;20390;-81
2023/02/16 05:05:59;;;;;;;48.80;23.33;;;;;;;;;;6128355;23;20704;-82
2023/02/16 05:08:32;;;;;;;45.45;22.90;;;;;;;;;;6152791;23;20375;-81
2023/02/16 05:16:37;;;;;;;48.67;23.58;;;;;;;;;;6127575;23;20383;-82
2023/02/16 05:19:07;;;;;;;47.03;23.17;;;;;;;;;;6154631;23;20367;-81
2023/02/16 05:21:35;;;;;;;43.22;21.35;;;;;;;;;;6151869;23;20386;-81
2023/02/16 05:24:04;;;;;;;49.17;23.02;;;;;;;;;;6152442;23;20386;-81
2023/02/16 05:26:38;;;;;;;57.47;26.40;;;;;;;;;;6127699;23;20383;-81
2023/02/16 05:29:06;;;;;;;62.72;28.55;;;;;;;;;;6128212;23;20382;-82
2023/02/16 05:31:33;;;;;;;64.38;29.58;;;;;;;;;;6154624;23;20817;-81
2023/02/16 05:34:01;;;;;;;66.70;30.20;;;;;;;;;;6152261;23;20705;-81
2023/02/16 05:36:35;;;;;;;65.75;29.67;;;;;;;;;;6152287;23;20375;-80
2023/02/16 05:39:08;;;;;;;67.55;31.13;;;;;;;;;;6152591;23;20394;-81
2023/02/16 05:41:36;;;;;;;64.72;30.77;;;;;;;;;;6152560;23;20382;-81
2023/02/16 05:44:04;;;;;;;63.77;29.77;;;;;;;;;;6127872;23;20425;-80
2023/02/16 05:46:33;;;;;;;59.75;28.35;;;;;;;;;;6151969;23;20387;-81
2023/02/16 05:49:07;;;;;;;62.03;29.80;;;;;;;;;;6152658;23;20379;-81
2023/02/16 05:51:36;;;;;;;62.25;30.15;;;;;;;;;;6126887;23;20694;-82
2023/02/16 05:54:15;;;;;;;60.63;29.45;;;;;;;;;;6164004;23;20374;-82
2023/02/16 05:56:49;;;;;;;60.63;28.37;;;;;;;;;;6163342;23;20697;-82
2023/02/16 05:59:22;;;;;;;57.97;31.67;;;;;;;;;;6151766;23;20394;-81
2023/02/16 06:01:55;;;;;;;50.50;26.25;;;;;;;;;;6150990;23;20399;-81
2023/02/16 06:04:23;;;;;;;56.55;27.55;;;;;;;;;;6125018;23;20390;-82
2023/02/16 06:06:57;;;;;;;52.95;26.98;;;;;;;;;;6151333;23;20413;-82
2023/02/16 06:09:25;;;;;;;58.25;27.58;;;;;;;;;;6151858;23;20386;-81
2023/02/16 06:11:53;;;;;;;60.30;29.17;;;;;;;;;;6151448;23;20386;-81
2023/02/16 06:14:21;;;;;;;63.15;29.38;;;;;;;;;;6151316;23;20386;-83
2023/02/16 06:16:50;;;;;;;60.65;28.98;;;;;;;;;;6153456;23;20386;-82
2023/02/16 06:19:23;;;;;;;63.80;29.13;;;;;;;;;;6127440;23;20393;-82
2023/02/16 06:21:51;;;;;;;61.17;29.30;;;;;;;;;;6151281;23;20390;-83
2023/02/16 06:24:25;;;;;;;63.05;29.25;;;;;;;;;;6162902;23;20394;-82
2023/02/16 06:26:58;;;;;;;58.45;28.58;;;;;;;;;;6150701;23;20698;-81
2023/02/16 06:29:31;;;;;;;59.13;29.55;;;;;;;;;;6126630;23;20383;-82
2023/02/16 06:31:59;;;;;;;59.40;29.42;;;;;;;;;;6153370;23;20724;-82
2023/02/16 06:34:26;;;;;;;58.78;29.63;;;;;;;;;;6149209;23;20393;-80
2023/02/16 06:36:54;;;;;;;64.30;30.77;;;;;;;;;;6150449;23;20947;-82
2023/02/16 06:39:22;;;;;;;55.73;29.33;;;;;;;;;;6150512;23;21031;-84
2023/02/16 06:41:56;;;;;;;58.03;28.90;;;;;;;;;;6150693;23;20386;-82
2023/02/16 06:44:29;;;;;;;53.60;28.45;;;;;;;;;;6150775;23;20383;-82
2023/02/16 06:47:01;;;;;;;57.35;27.95;;;;;;;;;;6126692;23;20387;-82
2023/02/16 06:49:29;;;;;;;54.88;28.70;;;;;;;;;;6153046;23;20363;-83
2023/02/16 06:51:57;;;;;;;53.65;27.70;;;;;;;;;;6150362;23;20402;-83
2023/02/16 06:54:25;;;;;;;58.10;28.92;;;;;;;;;;6125684;23;20387;-83
2023/02/16 06:56:56;;;;;;;58.53;28.65;;;;;;;;;;6151832;23;21328;-84
2023/02/16 06:59:29;;;;;;;55.78;28.50;;;;;;;;;;6151330;23;20387;-83
2023/02/16 07:01:56;;;;;;;57.63;28.70;;;;;;;;;;6126106;23;20887;-83
2023/02/16 07:04:24;;;;;;;60.08;29.70;;;;;;;;;;6151416;23;20701;-81
2023/02/16 07:06:57;;;;;;;56.22;27.95;;;;;;;;;;6150290;23;20383;-84
2023/02/16 07:09:30;;;;;;;57.20;28.98;;;;;;;;;;6125697;23;20848;-84
2023/02/16 07:11:59;;;;;;;57.55;28.42;;;;;;;;;;6125155;23;20973;-82
2023/02/16 07:14:32;;;;;;;54.00;28.48;;;;;;;;;;6150426;23;20390;-81
2023/02/16 07:17:05;;;;;;;51.33;28.45;;;;;;;;;;6124840;23;20389;-83
2023/02/16 07:19:33;;;;;;;56.85;29.55;;;;;;;;;;6149017;23;20391;-84
2023/02/16 07:22:01;;;;;;;55.17;28.92;;;;;;;;;;6125902;23;20393;-81
2023/02/16 07:24:34;;;;;;;63.70;29.80;;;;;;;;;;6127094;23;20387;-82
2023/02/16 07:27:08;;;;;;;50.28;27.95;;;;;;;;;;6149842;23;20394;-82
2023/02/16 07:29:41;;;;;;;59.65;29.48;;;;;;;;;;6162454;23;20686;-83
2023/02/16 07:32:13;;;;;;;53.83;28.17;;;;;;;;;;6150289;23;20439;-83
2023/02/16 07:34:41;;;;;;;58.58;29.20;;;;;;;;;;6152256;23;20378;-83
2023/02/16 07:37:09;;;;;;;61.13;30.23;;;;;;;;;;6150176;23;20383;-82
2023/02/16 07:39:42;;;;;;;55.47;30.17;;;;;;;;;;6162450;23;20827;-83
2023/02/16 07:42:16;;;;;;;59.05;29.85;;;;;;;;;;6149633;23;20391;-82
2023/02/16 07:44:47;;;;;;;57.80;29.85;;;;;;;;;;6125351;23;20829;-81
2023/02/16 07:47:15;;;;;;;55.67;29.07;;;;;;;;;;6150983;23;20389;-82
2023/02/16 07:49:43;;;;;;;59.17;30.48;;;;;;;;;;6152289;23;20372;-83
2023/02/16 07:52:16;;;;;;;56.80;29.38;;;;;;;;;;6153351;23;20379;-82
2023/02/16 07:54:45;;;;;;;58.15;30.25;;;;;;;;;;6151703;23;20367;-84
2023/02/16 07:57:19;;;;;;;59.55;30.67;;;;;;;;;;6134243;23;20387;-82
2023/02/16 07:59:52;;;;;;;55.92;30.17;;;;;;;;;;6119006;23;20387;-82
2023/02/16 08:02:26;;;;;;;60.93;31.40;;;;;;;;;;6131178;23;20399;-82
2023/02/16 08:04:59;;;;;;;58.75;30.58;;;;;;;;;;6106459;23;20397;-83
2023/02/16 08:07:27;;;;;;;56.63;30.15;;;;;;;;;;6138593;23;20382;-84
2023/02/16 08:10:00;;;;;;;59.03;30.50;;;;;;;;;;6133267;23;20399;-83
2023/02/16 08:12:34;;;;;;;62.35;32.08;;;;;;;;;;6137385;23;21032;-84
2023/02/16 08:15:08;;;;;;;60.08;31.60;;;;;;;;;;6110185;23;20852;-84
2023/02/16 08:17:41;;;;;;;59.33;30.83;;;;;;;;;;6147327;23;20382;-83
2023/02/16 08:20:09;;;;;;;59.13;30.58;;;;;;;;;;6130871;23;20378;-84
2023/02/16 08:22:42;;;;;;;59.10;31.23;;;;;;;;;;6107503;23;20863;-85
2023/02/16 08:25:15;;;;;;;59.40;30.58;;;;;;;;;;6133064;23;20394;-84
2023/02/16 08:27:44;;;;;;;56.53;31.35;;;;;;;;;;6112174;23;20397;-84
2023/02/16 08:30:17;;;;;;;57.88;30.30;;;;;;;;;;6106928;23;20390;-83
2023/02/16 08:32:50;;;;;;;56.60;30.30;;;;;;;;;;6144768;23;20387;-82
2023/02/16 08:35:24;;;;;;;54.47;29.88;;;;;;;;;;6104226;23;20890;-83
2023/02/16 08:37:56;;;;;;;58.63;31.70;;;;;;;;;;6103952;23;20387;-85
2023/02/16 08:40:30;;;;;;;56.17;30.80;;;;;;;;;;6139935;23;20387;-83
2023/02/16 08:43:04;;;;;;;56.15;31.83;;;;;;;;;;6130521;23;20383;-85
2023/02/16 08:45:37;;;;;;;54.63;29.77;;;;;;;;;;6144538;23;20390;-85
2023/02/16 08:48:05;;;;;;;52.80;30.00;;;;;;;;;;6136348;23;20383;-85
2023/02/16 08:50:38;;;;;;;61.50;32.10;;;;;;;;;;6141298;23;20375;-82
2023/02/16 08:53:06;;;;;;;53.58;30.23;;;;;;;;;;6104251;23;20391;-85
2023/02/16 08:55:39;;;;;;;53.33;30.10;;;;;;;;;;6129631;23;20394;-84
2023/02/16 08:58:08;;;;;;;54.22;30.02;;;;;;;;;;6127858;23;20387;-82
2023/02/16 09:00:42;;;;;;;54.80;30.77;;;;;;;;;;6106289;23;20398;-86
2023/02/16 09:03:15;;;;;;;53.30;31.00;;;;;;;;;;6143785;23;21178;-84
2023/02/16 09:05:48;;;;;;;60.67;30.10;;;;;;;;;;6141164;23;20389;-84
2023/02/16 09:08:21;;;;;;;54.80;31.13;;;;;;;;;;6105648;23;20390;-83
2023/02/16 09:10:54;;;;;;;54.63;30.52;;;;;;;;;;6129332;23;21059;-84
2023/02/16 09:13:23;;;;;;;56.97;30.42;;;;;;;;;;6105906;23;20418;-83
2023/02/16 09:16:01;;;;;;;55.38;30.58;;;;;;;;;;6148304;23;20382;-83
2023/02/16 09:18:35;;;;;;;53.55;30.50;;;;;;;;;;6132861;23;20399;-84
2023/02/16 09:21:03;;;;;;;55.40;30.77;;;;;;;;;;6141748;23;20379;-82
2023/02/16 09:23:32;;;;;;;57.35;31.48;;;;;;;;;;6135365;23;20390;-84
2023/02/16 09:26:06;;;;;;;52.90;30.33;;;;;;;;;;6146683;23;20378;-83
2023/02/16 09:28:40;;;;;;;55.42;30.08;;;;;;;;;;6143110;23;20383;-82
2023/02/16 09:31:14;;;;;;;51.60;29.92;;;;;;;;;;6146462;23;20974;-81
2023/02/16 09:33:43;;;;;;;52.35;28.92;;;;;;;;;;6136632;23;20387;-82
2023/02/16 09:36:16;;;;;;;55.50;29.73;;;;;;;;;;6136245;23;20387;-83
2023/02/16 09:38:46;;;;;;;52.33;29.63;;;;;;;;;;6138940;23;20370;-86
2023/02/16 09:41:23;;;;;;;56.80;31.43;;;;;;;;;;6136668;23;20725;-83
2023/02/16 09:43:59;;;;;;;54.20;29.85;;;;;;;;;;6149784;23;20383;-83
2023/02/16 09:46:32;;;;;;;57.30;30.95;;;;;;;;;;6133643;23;20394;-86
2023/02/16 09:49:01;;;;;;;54.47;30.73;;;;;;;;;;6107345;23;20383;-82
2023/02/16 09:51:36;;;;;;;57.17;31.40;;;;;;;;;;6133066;23;20403;-83
2023/02/16 09:54:15;;;;;;;54.70;30.97;;;;;;;;;;6147135;23;21429;-83
2023/02/16 09:56:52;;;;;;;51.00;29.90;;;;;;;;;;6131006;23;20401;-82
2023/02/16 09:59:33;;;;;;;53.92;29.92;;;;;;;;;;6110910;23;21065;-85
2023/02/16 10:02:14;;;;;;;51.72;29.70;;;;;;;;;;6135629;23;20391;-84
2023/02/16 10:04:51;;;;;;;53.22;30.42;;;;;;;;;;6144660;23;20838;-87
2023/02/16 10:07:30;;;;;;;52.65;30.05;;;;;;;;;;6129001;23;20383;-84
2023/02/16 10:10:04;;;;;;;52.20;29.05;;;;;;;;;;6132931;23;20973;-83
2023/02/16 10:12:37;;;;;;;55.33;30.30;;;;;;;;;;6126235;23;21233;-84
2023/02/16 10:15:15;;;;;;;54.28;29.50;;;;;;;;;;6132011;23;20873;-84
2023/02/16 10:17:50;;;;;;;53.80;29.95;;;;;;;;;;6143181;23;20390;-83
2023/02/16 10:20:22;;;;;;;51.30;29.23;;;;;;;;;;6133050;23;20383;-82
2023/02/16 10:22:51;;;;;;;52.97;29.70;;;;;;;;;;6143468;23;20366;-84
2023/02/16 10:25:22;;;;;;;54.55;29.50;;;;;;;;;;6107491;23;20382;-83
2023/02/16 10:27:52;;;;;;;51.23;29.87;;;;;;;;;;6109856;23;20712;-83
2023/02/16 10:30:29;;;;;;;54.85;29.52;;;;;;;;;;6142844;23;20405;-85
2023/02/16 10:32:59;;;;;;;54.33;29.55;;;;;;;;;;6129542;23;20988;-82
2023/02/16 10:35:32;;;;;;;50.53;28.90;;;;;;;;;;6131564;23;20383;-84
2023/02/16 10:38:10;;;;;;;51.92;28.95;;;;;;;;;;6133929;23;20391;-85
2023/02/16 10:40:47;;;;;;;51.22;29.70;;;;;;;;;;6132599;23;20391;-86
2023/02/16 10:43:18;;;;;;;54.75;29.35;;;;;;;;;;6142150;23;20371;-82
2023/02/16 10:45:52;;;;;;;53.38;29.60;;;;;;;;;;6129406;23;20394;-83
2023/02/16 10:48:21;;;;;;;50.95;28.83;;;;;;;;;;6132245;23;20378;-83
2023/02/16 10:50:54;;;;;;;48.90;28.98;;;;;;;;;;6107857;23;20379;-83
2023/02/16 10:53:29;;;;;;;50.17;28.67;;;;;;;;;;6149827;23;20463;-82
2023/02/16 10:56:02;;;;;;;45.63;27.10;;;;;;;;;;6072275;23;20387;-86
2023/02/16 10:58:39;;;;;;;52.72;28.90;;;;;;;;;;6107411;23;20390;-83
2023/02/16 11:01:14;;;;;;;50.45;28.88;;;;;;;;;;6141883;23;20387;-84
2023/02/16 11:03:49;;;;;;;49.58;28.85;;;;;;;;;;6144956;23;20382;-83
2023/02/16 11:06:18;;;;;;;51.65;29.45;;;;;;;;;;6107057;23;20390;-84
2023/02/16 11:08:53;;;;;;;51.70;28.70;;;;;;;;;;6128384;23;20433;-84
2023/02/16 11:11:21;;;;;;;47.25;27.67;;;;;;;;;;6134078;23;20367;-84
2023/02/16 11:13:58;;;;;;;51.13;28.77;;;;;;;;;;6131428;23;20401;-85
2023/02/16 11:16:33;;;;;;;51.55;28.75;;;;;;;;;;6134276;23;20419;-83
2023/02/16 11:19:07;;;;;;;52.93;29.07;;;;;;;;;;6127883;23;20489;-84
2023/02/16 11:21:46;;;;;;;49.05;28.02;;;;;;;;;;6128824;23;20863;-82
2023/02/16 11:24:25;;;;;;;50.63;28.80;;;;;;;;;;6148877;23;20411;-84
2023/02/16 11:27:03;;;;;;;51.75;28.58;;;;;;;;;;6106496;23;20398;-83
2023/02/16 11:29:31;;;;;;;54.63;29.40;;;;;;;;;;6134222;23;20394;-82
2023/02/16 11:32:07;;;;;;;55.53;29.33;;;;;;;;;;6145344;23;20382;-83
2023/02/16 11:34:35;;;;;;;52.40;29.95;;;;;;;;;;6130959;23;20383;-83
2023/02/16 11:37:06;;;;;;;51.15;29.70;;;;;;;;;;6109139;23;20394;-85
2023/02/16 11:39:35;;;;;;;50.33;29.98;;;;;;;;;;6107643;23;20387;-83
2023/02/16 11:42:04;;;;;;;49.15;28.63;;;;;;;;;;6131577;23;21178;-83
2023/02/16 11:44:39;;;;;;;52.63;28.83;;;;;;;;;;6142302;23;20381;-84
2023/02/16 11:47:09;;;;;;;49.78;28.88;;;;;;;;;;6130232;23;20390;-85
2023/02/16 11:49:38;;;;;;;49.90;28.02;;;;;;;;;;6106013;23;20383;-84
2023/02/16 11:52:19;;;;;;;50.05;28.13;;;;;;;;;;6133544;23;20794;-86
2023/02/16 11:54:48;;;;;;;47.33;29.05;;;;;;;;;;6109408;23;20394;-84
2023/02/16 11:57:25;;;;;;;51.97;28.92;;;;;;;;;;6099474;23;20398;-85
2023/02/16 11:59:59;;;;;;;49.30;27.75;;;;;;;;;;6132260;23;20402;-86
2023/02/16 12:02:59;;;;;;;48.78;28.85;;;;;;;;;;6145579;23;20397;-84
2023/02/16 12:05:35;;;;;;;50.95;28.77;;;;;;;;;;6147688;23;20382;-86
2023/02/16 12:08:09;;;;;;;50.67;29.50;;;;;;;;;;6148856;23;20385;-83
2023/02/16 12:10:46;;;;;;;49.22;28.20;;;;;;;;;;6111286;23;20386;-83
2023/02/16 12:13:22;;;;;;;53.17;29.33;;;;;;;;;;6137978;23;20892;-82
2023/02/16 12:15:58;;;;;;;53.63;29.15;;;;;;;;;;6148165;23;20390;-84
2023/02/16 12:18:41;;;;;;;51.70;28.73;;;;;;;;;;6132511;23;20402;-84
2023/02/16 12:21:21;;;;;;;51.03;29.33;;;;;;;;;;6108622;23;20390;-83
2023/02/16 12:23:54;;;;;;;51.47;28.33;;;;;;;;;;6131752;23;20383;-83
2023/02/16 12:26:37;;;;;;;54.33;29.20;;;;;;;;;;6134313;23;20379;-83
2023/02/16 12:29:11;;;;;;;49.40;28.73;;;;;;;;;;6138048;23;20386;-84
2023/02/16 12:31:51;;;;;;;52.63;28.08;;;;;;;;;;6152464;23;20383;-83
2023/02/16 12:34:26;;;;;;;53.63;28.85;;;;;;;;;;6135066;23;20896;-84
2023/02/16 12:37:02;;;;;;;51.30;28.83;;;;;;;;;;6107141;23;20391;-84
2023/02/16 12:39:40;;;;;;;51.88;28.58;;;;;;;;;;6134671;23;20398;-87
2023/02/16 12:42:26;;;;;;;54.33;29.30;;;;;;;;;;6112010;23;20391;-84
2023/02/16 12:44:56;;;;;;;55.63;29.15;;;;;;;;;;6109101;23;20386;-85
2023/02/16 12:47:28;;;;;;;53.30;29.80;;;;;;;;;;6131264;23;20391;-83
2023/02/16 12:50:04;;;;;;;55.08;30.00;;;;;;;;;;6105066;23;20390;-86
2023/02/16 12:52:39;;;;;;;55.90;30.25;;;;;;;;;;6129243;23;20386;-83
2023/02/16 12:55:16;;;;;;;55.75;30.70;;;;;;;;;;6104555;23;20382;-85
2023/02/16 12:57:49;;;;;;;61.88;30.48;;;;;;;;;;6097153;23;20902;-85
2023/02/16 13:00:25;;;;;;;57.27;31.23;;;;;;;;;;6132474;23;20383;-85
2023/02/16 13:03:06;;;;;;;59.72;31.45;;;;;;;;;;6136731;23;20399;-85
2023/02/16 13:05:37;;;;;;;59.15;31.38;;;;;;;;;;6143704;23;20371;-85
2023/02/16 13:08:14;;;;;;;59.67;31.23;;;;;;;;;;6146342;23;20398;-82
2023/02/16 13:10:47;;;;;;;56.72;31.02;;;;;;;;;;6134466;23;20394;-85
2023/02/16 13:13:21;;;;;;;58.70;30.58;;;;;;;;;;6108267;23;20383;-85
2023/02/16 13:15:57;;;;;;;58.53;31.52;;;;;;;;;;6136303;23;21033;-83
2023/02/16 13:18:27;;;;;;;59.10;31.05;;;;;;;;;;6130069;23;21088;-85
2023/02/16 13:21:04;;;;;;;57.53;30.65;;;;;;;;;;6133739;23;20394;-85
2023/02/16 13:23:37;;;;;;;56.70;30.27;;;;;;;;;;6109516;23;20390;-81
2023/02/16 13:26:20;;;;;;;55.33;30.35;;;;;;;;;;6104107;23;20387;-85
2023/02/16 13:29:06;;;;;;;61.55;32.28;;;;;;;;;;6114348;23;20394;-83
2023/02/16 13:31:45;;;;;;;57.33;30.40;;;;;;;;;;6145459;23;20398;-85
2023/02/16 13:34:25;;;;;;;57.10;30.95;;;;;;;;;;6144542;23;21187;-86
2023/02/16 13:37:04;;;;;;;61.88;32.17;;;;;;;;;;6129941;23;20386;-86
2023/02/16 13:39:40;;;;;;;63.08;31.77;;;;;;;;;;6131404;23;20383;-83
2023/02/16 13:42:28;;;;;;;57.57;30.10;;;;;;;;;;6130960;23;20706;-82
2023/02/16 13:44:57;;;;;;;62.55;32.55;;;;;;;;;;6129689;23;20398;-85
2023/02/16 13:47:27;;;;;;;61.35;30.75;;;;;;;;;;6131624;23;20382;-84
2023/02/16 13:49:57;;;;;;;63.50;32.45;;;;;;;;;;6134655;23;20874;-87
2023/02/16 13:52:31;;;;;;;59.03;31.70;;;;;;;;;;6129309;23;20391;-83
2023/02/16 13:55:07;;;;;;;62.72;32.65;;;;;;;;;;6106094;23;20383;-83
2023/02/16 13:57:49;;;;;;;61.97;31.08;;;;;;;;;;6076534;23;20398;-84
2023/02/16 14:00:28;;;;;;;60.95;32.00;;;;;;;;;;6134193;23;20390;-86
2023/02/16 14:02:58;;;;;;;56.33;30.58;;;;;;;;;;6130880;23;20395;-84
2023/02/16 14:05:36;;;;;;;62.58;32.63;;;;;;;;;;6130976;23;20390;-84
2023/02/16 14:08:12;;;;;;;59.35;31.40;;;;;;;;;;6130007;23;20386;-84
2023/02/16 14:10:56;;;;;;;64.20;32.13;;;;;;;;;;6144375;23;20387;-84
2023/02/16 14:13:27;;;;;;;62.28;33.20;;;;;;;;;;6143355;23;20378;-84
2023/02/16 14:16:02;;;;;;;57.83;31.15;;;;;;;;;;6105586;23;20397;-85
2023/02/16 14:18:31;;;;;;;60.42;32.63;;;;;;;;;;6131464;23;20382;-83
2023/02/16 14:21:00;;;;;;;59.95;31.08;;;;;;;;;;6132785;23;20999;-85
2023/02/16 14:23:33;;;;;;;57.10;31.20;;;;;;;;;;6135335;23;20395;-84
2023/02/16 14:26:08;;;;;;;59.55;32.70;;;;;;;;;;6129750;23;20883;-85
2023/02/16 14:28:56;;;;;;;58.58;31.15;;;;;;;;;;6129641;23;20398;-84
2023/02/16 14:31:31;;;;;;;58.33;31.45;;;;;;;;;;6134335;23;20391;-85
2023/02/16 14:34:05;;;;;;;60.53;31.20;;;;;;;;;;6133215;23;20390;-86
2023/02/16 14:37:05;;;;;;;55.13;31.20;;;;;;;;;;6135669;23;20391;-84
2023/02/16 14:39:35;;;;;;;58.05;31.83;;;;;;;;;;6126464;23;20394;-83
2023/02/16 14:42:07;;;;;;;53.50;30.73;;;;;;;;;;6130258;23;20741;-84
2023/02/16 14:44:50;;;;;;;55.78;30.55;;;;;;;;;;6125703;23;20387;-83
2023/02/16 14:47:26;;;;;;;53.78;29.73;;;;;;;;;;6151674;23;20383;-82
2023/02/16 14:50:14;;;;;;;54.28;30.05;;;;;;;;;;6151339;23;20386;-82
2023/02/16 14:53:00;;;;;;;50.92;28.80;;;;;;;;;;6116948;23;20390;-83
2023/02/16 14:55:47;;;;;;;51.25;28.20;;;;;;;;;;6151528;23;20382;-82
2023/02/16 14:58:22;;;;;;;51.17;28.37;;;;;;;;;;6151121;23;20386;-82
2023/02/16 15:00:52;;;;;;;51.70;29.20;;;;;;;;;;6163272;23;20689;-82
2023/02/16 15:03:20;;;;;;;53.75;29.30;;;;;;;;;;6153225;23;20367;-83
2023/02/16 15:05:52;;;;;;;53.30;29.25;;;;;;;;;;6150539;23;20785;-82
2023/02/16 15:08:22;;;;;;;51.03;29.05;;;;;;;;;;6126861;23;20385;-81
2023/02/16 15:10:52;;;;;;;51.10;29.17;;;;;;;;;;6151147;23;20391;-83
2023/02/16 15:13:24;;;;;;;50.78;28.52;;;;;;;;;;6127420;23;20375;-83
2023/02/16 15:15:58;;;;;;;51.53;29.33;;;;;;;;;;6147182;23;20378;-81
2023/02/16 15:18:33;;;;;;;49.25;28.35;;;;;;;;;;6151158;23;20427;-82
2023/02/16 15:21:01;;;;;;;52.55;28.85;;;;;;;;;;6153103;23;20375;-82
2023/02/16 15:23:34;;;;;;;51.10;28.90;;;;;;;;;;6162455;23;20387;-83
2023/02/16 15:26:18;;;;;;;49.72;29.35;;;;;;;;;;6162968;23;20378;-82
2023/02/16 15:28:52;;;;;;;52.47;28.70;;;;;;;;;;6148232;23;20845;-82
2023/02/16 15:31:24;;;;;;;51.50;28.85;;;;;;;;;;6149204;23;20386;-84